Meteo Giornale » Osservazioni meteo Stati Uniti (USA) » Greybull South Big Horn
ore: 20:53 - Osservazioni Meteo Greybull South Big Horn
Lat. 44° 30' N Lon. 108° 4' W Alt. 1199 metri s.l.m.
22 °C
Sereno
Temp. 24 Ore
7 °C
29 °C
Nord
5.5 Km/h
Dew point -3 °C
Umidità 18 %
Visibilità 10 Km
Il sole sorge alle ore 06:34
Il sole tramonta alle ore 19:50
| Data e Ora | Cielo e Fenomeni | T °C | DP °C | Um. % | Pres. hPa | Vis. km | Vento km/h | |
|---|---|---|---|---|---|---|---|---|
| Oggi h: 20:53 | Sereno | 22 | -3 | 18 | 1015 | 10 | N 5.5 | |
| Oggi h: 19:53 | Sereno | 25 | -4 | 14 | 1015 | 10 | N 0 | |
| Oggi h: 18:53 | Sereno | 28 | -8 | 8 | 1014 | 10 | N 5.5 | |
| Oggi h: 17:53 | Sereno | 29 | -9 | 7 | 1014 | 10 | N 7.4 | |
| Oggi h: 16:53 | Sereno | 28 | -8 | 8 | 1015 | 10 | N 5.5 | |
| Oggi h: 15:53 | Sereno | 28 | -8 | 8 | 1015 | 10 | N 7.4 | |
| Oggi h: 14:53 | Sereno | 27 | -9 | 8 | 1016 | 10 | NE 14.8 | |
| Oggi h: 13:53 | Sereno | 26 | -4 | 13 | 1017 | 10 | N 0 | |
| Oggi h: 12:53 | Sereno | 26 | -5 | 12 | 1018 | 10 | N 0 | |
| Oggi h: 11:53 | Sereno | 23 | -1 | 20 | 1018 | 10 | N 5.5 | |
| Oggi h: 10:53 | Sereno | 20 | 3 | 32 | 1019 | 10 | N 5.5 | |
| Oggi h: 09:53 | Sereno | 16 | 4 | 44 | 1019 | 10 | S 7.4 | |
| Oggi h: 08:53 | Sereno | 13 | 5 | 58 | 1019 | 10 | N 5.5 | |
| Oggi h: 07:53 | Sereno | 9 | 2 | 61 | 1018 | 10 | N 5.5 | |
| Oggi h: 06:53 | Sereno | 7 | 3 | 75 | 1017 | 10 | N 5.5 | |
| Oggi h: 05:53 | Sereno | 8 | 3 | 70 | 1017 | 10 | N 0 | |
| Oggi h: 04:53 | Sereno | 7 | 3 | 75 | 1016 | 10 | N 0 | |
| Oggi h: 03:53 | Sereno | 10 | 4 | 66 | 1016 | 10 | E/SE 7.4 | |
| Oggi h: 02:53 | Sereno | 11 | 6 | 71 | 1015 | 10 | N 0 | |
| Oggi h: 01:53 | Sereno | 12 | 6 | 66 | 1015 | 10 | E/SE 7.4 | |
| Oggi h: 00:53 | Sereno | 12 | 6 | 66 | 1015 | 10 | N 5.5 | |
| Ieri h: 23:53 | Sereno | 13 | 6 | 62 | 1014 | 10 | O 11.1 | |
| Ieri h: 22:53 | Sereno | 16 | 7 | 55 | 1014 | 10 | O/NO 9.3 | |
| Ieri h: 21:53 | Sereno | 19 | 6 | 42 | 1014 | 10 | NO 16.7 | |



